sensor_id;sensor_type;location;lat;lon;timestamp;temperature;humidity
12115;DHT22;6121;49.810;6.418;2023-05-07T00:00:22;14.00;99.90
12115;DHT22;6121;49.810;6.418;2023-05-07T00:02:48;13.80;99.90
12115;DHT22;6121;49.810;6.418;2023-05-07T00:05:14;13.80;99.90
12115;DHT22;6121;49.810;6.418;2023-05-07T00:07:40;13.90;99.90
12115;DHT22;6121;49.810;6.418;2023-05-07T00:10:07;13.70;99.90
12115;DHT22;6121;49.810;6.418;2023-05-07T00:12:52;13.80;99.90
12115;DHT22;6121;49.810;6.418;2023-05-07T00:15:17;13.90;99.90
12115;DHT22;6121;49.810;6.418;2023-05-07T00:17:43;13.70;99.90
12115;DHT22;6121;49.810;6.418;2023-05-07T00:20:10;13.60;99.90
12115;DHT22;6121;49.810;6.418;2023-05-07T00:22:36;13.60;99.90
12115;DHT22;6121;49.810;6.418;2023-05-07T00:25:03;13.50;99.90
12115;DHT22;6121;49.810;6.418;2023-05-07T00:27:30;13.50;99.90
12115;DHT22;6121;49.810;6.418;2023-05-07T00:29:55;13.40;99.90
12115;DHT22;6121;49.810;6.418;2023-05-07T00:32:21;13.40;99.90
12115;DHT22;6121;49.810;6.418;2023-05-07T00:34:47;13.50;99.90
12115;DHT22;6121;49.810;6.418;2023-05-07T00:37:13;13.30;99.90
12115;DHT22;6121;49.810;6.418;2023-05-07T00:39:39;13.10;99.90
12115;DHT22;6121;49.810;6.418;2023-05-07T00:42:04;13.20;99.90
12115;DHT22;6121;49.810;6.418;2023-05-07T00:44:30;13.20;99.90
12115;DHT22;6121;49.810;6.418;2023-05-07T00:47:02;13.00;99.90
12115;DHT22;6121;49.810;6.418;2023-05-07T00:49:38;13.10;99.90
12115;DHT22;6121;49.810;6.418;2023-05-07T00:52:13;13.00;99.90
12115;DHT22;6121;49.810;6.418;2023-05-07T00:54:41;13.00;99.90
12115;DHT22;6121;49.810;6.418;2023-05-07T00:57:09;13.10;99.90
12115;DHT22;6121;49.810;6.418;2023-05-07T00:59:35;12.80;99.90
12115;DHT22;6121;49.810;6.418;2023-05-07T01:02:01;12.80;99.90
12115;DHT22;6121;49.810;6.418;2023-05-07T01:04:27;12.90;99.90
12115;DHT22;6121;49.810;6.418;2023-05-07T01:06:55;12.90;99.90
12115;DHT22;6121;49.810;6.418;2023-05-07T01:09:25;12.80;99.90
12115;DHT22;6121;49.810;6.418;2023-05-07T01:11:52;12.80;99.90
12115;DHT22;6121;49.810;6.418;2023-05-07T01:14:19;12.80;99.90
12115;DHT22;6121;49.810;6.418;2023-05-07T01:16:49;12.90;99.90
12115;DHT22;6121;49.810;6.418;2023-05-07T01:19:18;12.80;99.90
12115;DHT22;6121;49.810;6.418;2023-05-07T01:21:48;12.80;99.90
12115;DHT22;6121;49.810;6.418;2023-05-07T01:24:16;12.70;99.90
12115;DHT22;6121;49.810;6.418;2023-05-07T01:26:43;12.80;99.90
12115;DHT22;6121;49.810;6.418;2023-05-07T01:29:09;12.60;99.90
12115;DHT22;6121;49.810;6.418;2023-05-07T01:31:36;12.70;99.90
12115;DHT22;6121;49.810;6.418;2023-05-07T01:34:03;12.70;99.90
12115;DHT22;6121;49.810;6.418;2023-05-07T01:36:31;12.70;99.90
12115;DHT22;6121;49.810;6.418;2023-05-07T01:38:57;12.60;99.90
12115;DHT22;6121;49.810;6.418;2023-05-07T01:41:24;12.60;99.90
12115;DHT22;6121;49.810;6.418;2023-05-07T01:43:52;12.60;99.90
12115;DHT22;6121;49.810;6.418;2023-05-07T01:46:18;12.60;99.90
12115;DHT22;6121;49.810;6.418;2023-05-07T01:48:45;12.60;99.90
12115;DHT22;6121;49.810;6.418;2023-05-07T01:51:12;12.50;99.90
12115;DHT22;6121;49.810;6.418;2023-05-07T01:53:39;12.50;99.90
12115;DHT22;6121;49.810;6.418;2023-05-07T01:56:06;12.50;99.90
12115;DHT22;6121;49.810;6.418;2023-05-07T01:58:33;12.40;99.90
12115;DHT22;6121;49.810;6.418;2023-05-07T02:01:00;12.30;99.90
12115;DHT22;6121;49.810;6.418;2023-05-07T02:03:25;12.20;99.90
12115;DHT22;6121;49.810;6.418;2023-05-07T02:05:59;12.10;99.90
12115;DHT22;6121;49.810;6.418;2023-05-07T02:08:32;12.20;99.90
12115;DHT22;6121;49.810;6.418;2023-05-07T02:10:59;12.20;99.90
12115;DHT22;6121;49.810;6.418;2023-05-07T02:13:28;12.20;99.90
12115;DHT22;6121;49.810;6.418;2023-05-07T02:15:54;12.20;99.90
12115;DHT22;6121;49.810;6.418;2023-05-07T02:18:20;12.30;99.90
12115;DHT22;6121;49.810;6.418;2023-05-07T02:20:46;12.20;99.90
12115;DHT22;6121;49.810;6.418;2023-05-07T02:23:12;12.20;99.90
12115;DHT22;6121;49.810;6.418;2023-05-07T02:25:38;12.10;99.90
12115;DHT22;6121;49.810;6.418;2023-05-07T02:28:04;11.90;99.90
12115;DHT22;6121;49.810;6.418;2023-05-07T02:31:05;11.90;99.90
12115;DHT22;6121;49.810;6.418;2023-05-07T02:33:32;11.90;99.90
12115;DHT22;6121;49.810;6.418;2023-05-07T02:36:08;11.90;99.90
12115;DHT22;6121;49.810;6.418;2023-05-07T02:38:37;11.90;99.90
12115;DHT22;6121;49.810;6.418;2023-05-07T02:41:04;11.80;99.90
12115;DHT22;6121;49.810;6.418;2023-05-07T02:43:31;11.80;99.90
12115;DHT22;6121;49.810;6.418;2023-05-07T02:46:05;11.80;99.90
12115;DHT22;6121;49.810;6.418;2023-05-07T02:48:33;11.80;99.90
12115;DHT22;6121;49.810;6.418;2023-05-07T02:51:00;11.80;99.90
12115;DHT22;6121;49.810;6.418;2023-05-07T02:53:26;11.70;99.90
12115;DHT22;6121;49.810;6.418;2023-05-07T02:55:57;11.70;99.90
12115;DHT22;6121;49.810;6.418;2023-05-07T02:58:23;11.80;99.90
12115;DHT22;6121;49.810;6.418;2023-05-07T03:00:49;11.70;99.90
12115;DHT22;6121;49.810;6.418;2023-05-07T03:03:36;11.70;99.90
12115;DHT22;6121;49.810;6.418;2023-05-07T03:06:02;11.60;99.90
12115;DHT22;6121;49.810;6.418;2023-05-07T03:08:27;11.60;99.90
12115;DHT22;6121;49.810;6.418;2023-05-07T03:10:53;11.70;99.90
12115;DHT22;6121;49.810;6.418;2023-05-07T03:13:19;11.60;99.90
12115;DHT22;6121;49.810;6.418;2023-05-07T03:15:46;11.50;99.90
12115;DHT22;6121;49.810;6.418;2023-05-07T03:18:11;11.20;99.90
12115;DHT22;6121;49.810;6.418;2023-05-07T03:20:37;11.20;99.90
12115;DHT22;6121;49.810;6.418;2023-05-07T03:23:04;11.30;99.90
12115;DHT22;6121;49.810;6.418;2023-05-07T03:25:32;11.20;99.90
12115;DHT22;6121;49.810;6.418;2023-05-07T03:27:57;11.10;99.90
12115;DHT22;6121;49.810;6.418;2023-05-07T03:30:30;11.20;99.90
12115;DHT22;6121;49.810;6.418;2023-05-07T03:32:55;11.10;99.90
12115;DHT22;6121;49.810;6.418;2023-05-07T03:35:22;11.10;99.90
12115;DHT22;6121;49.810;6.418;2023-05-07T03:37:48;11.10;99.90
12115;DHT22;6121;49.810;6.418;2023-05-07T03:40:14;11.00;99.90
12115;DHT22;6121;49.810;6.418;2023-05-07T03:42:45;11.10;99.90
12115;DHT22;6121;49.810;6.418;2023-05-07T03:45:12;11.10;99.90
12115;DHT22;6121;49.810;6.418;2023-05-07T03:47:42;11.20;99.90
12115;DHT22;6121;49.810;6.418;2023-05-07T03:50:10;11.20;99.90
12115;DHT22;6121;49.810;6.418;2023-05-07T03:52:36;11.30;99.90
12115;DHT22;6121;49.810;6.418;2023-05-07T03:55:03;11.20;99.90
12115;DHT22;6121;49.810;6.418;2023-05-07T03:57:32;11.30;99.90
12115;DHT22;6121;49.810;6.418;2023-05-07T03:59:59;11.30;99.90
12115;DHT22;6121;49.810;6.418;2023-05-07T04:02:25;11.30;99.90
12115;DHT22;6121;49.810;6.418;2023-05-07T04:04:51;11.40;99.90
12115;DHT22;6121;49.810;6.418;2023-05-07T04:07:19;11.30;99.90
12115;DHT22;6121;49.810;6.418;2023-05-07T04:09:49;11.30;99.90
12115;DHT22;6121;49.810;6.418;2023-05-07T04:12:15;11.30;99.90
12115;DHT22;6121;49.810;6.418;2023-05-07T04:14:41;11.30;99.90
12115;DHT22;6121;49.810;6.418;2023-05-07T04:17:07;11.40;99.90
12115;DHT22;6121;49.810;6.418;2023-05-07T04:19:37;11.40;99.90
12115;DHT22;6121;49.810;6.418;2023-05-07T04:22:03;11.30;99.90
12115;DHT22;6121;49.810;6.418;2023-05-07T04:24:32;11.30;99.90
12115;DHT22;6121;49.810;6.418;2023-05-07T04:26:59;11.40;99.90
12115;DHT22;6121;49.810;6.418;2023-05-07T04:29:25;11.40;99.90
12115;DHT22;6121;49.810;6.418;2023-05-07T04:31:51;11.40;99.90
12115;DHT22;6121;49.810;6.418;2023-05-07T04:34:17;11.50;99.90
12115;DHT22;6121;49.810;6.418;2023-05-07T04:36:43;11.50;99.90
12115;DHT22;6121;49.810;6.418;2023-05-07T04:39:12;11.50;99.90
12115;DHT22;6121;49.810;6.418;2023-05-07T04:41:40;11.50;99.90
12115;DHT22;6121;49.810;6.418;2023-05-07T04:44:07;11.20;99.90
12115;DHT22;6121;49.810;6.418;2023-05-07T04:46:35;11.20;99.90
12115;DHT22;6121;49.810;6.418;2023-05-07T04:49:01;11.20;99.90
12115;DHT22;6121;49.810;6.418;2023-05-07T04:51:27;11.20;99.90
12115;DHT22;6121;49.810;6.418;2023-05-07T04:53:54;11.30;99.90
12115;DHT22;6121;49.810;6.418;2023-05-07T04:56:20;11.30;99.90
12115;DHT22;6121;49.810;6.418;2023-05-07T04:58:47;11.30;99.90
12115;DHT22;6121;49.810;6.418;2023-05-07T05:01:15;11.40;99.90
12115;DHT22;6121;49.810;6.418;2023-05-07T05:03:41;11.50;99.90
12115;DHT22;6121;49.810;6.418;2023-05-07T05:06:07;11.50;99.90
12115;DHT22;6121;49.810;6.418;2023-05-07T05:08:34;11.50;99.90
12115;DHT22;6121;49.810;6.418;2023-05-07T05:11:02;11.50;99.90
12115;DHT22;6121;49.810;6.418;2023-05-07T05:13:28;11.60;99.90
12115;DHT22;6121;49.810;6.418;2023-05-07T05:15:54;11.80;99.90
12115;DHT22;6121;49.810;6.418;2023-05-07T05:18:20;11.60;99.90
12115;DHT22;6121;49.810;6.418;2023-05-07T05:20:46;11.70;99.90
12115;DHT22;6121;49.810;6.418;2023-05-07T05:23:13;11.70;99.90
12115;DHT22;6121;49.810;6.418;2023-05-07T05:25:39;11.70;99.90
12115;DHT22;6121;49.810;6.418;2023-05-07T05:28:06;11.80;99.90
12115;DHT22;6121;49.810;6.418;2023-05-07T05:30:33;12.00;99.90
12115;DHT22;6121;49.810;6.418;2023-05-07T05:32:59;12.20;99.90
12115;DHT22;6121;49.810;6.418;2023-05-07T05:35:29;12.30;99.90
12115;DHT22;6121;49.810;6.418;2023-05-07T05:37:55;12.20;99.90
12115;DHT22;6121;49.810;6.418;2023-05-07T05:40:22;12.10;99.90
12115;DHT22;6121;49.810;6.418;2023-05-07T05:42:48;12.20;99.90
12115;DHT22;6121;49.810;6.418;2023-05-07T05:45:16;12.20;99.90
12115;DHT22;6121;49.810;6.418;2023-05-07T05:47:44;11.90;99.90
12115;DHT22;6121;49.810;6.418;2023-05-07T05:50:10;12.00;99.90
12115;DHT22;6121;49.810;6.418;2023-05-07T05:52:36;12.20;99.90
12115;DHT22;6121;49.810;6.418;2023-05-07T05:55:03;12.10;99.90
12115;DHT22;6121;49.810;6.418;2023-05-07T05:57:29;12.40;99.90
12115;DHT22;6121;49.810;6.418;2023-05-07T05:59:55;12.40;99.90
12115;DHT22;6121;49.810;6.418;2023-05-07T06:02:21;12.50;99.90
12115;DHT22;6121;49.810;6.418;2023-05-07T06:04:47;12.60;99.90
12115;DHT22;6121;49.810;6.418;2023-05-07T06:07:17;12.60;99.90
12115;DHT22;6121;49.810;6.418;2023-05-07T06:09:43;12.60;99.90
12115;DHT22;6121;49.810;6.418;2023-05-07T06:12:09;12.50;99.90
12115;DHT22;6121;49.810;6.418;2023-05-07T06:14:35;12.50;99.90
12115;DHT22;6121;49.810;6.418;2023-05-07T06:17:01;12.60;99.90
12115;DHT22;6121;49.810;6.418;2023-05-07T06:19:27;12.60;99.90
12115;DHT22;6121;49.810;6.418;2023-05-07T06:21:55;12.70;99.90
12115;DHT22;6121;49.810;6.418;2023-05-07T06:24:25;12.90;99.90
12115;DHT22;6121;49.810;6.418;2023-05-07T06:26:51;13.10;99.90
12115;DHT22;6121;49.810;6.418;2023-05-07T06:29:17;13.30;99.90
12115;DHT22;6121;49.810;6.418;2023-05-07T06:31:43;13.20;99.90
12115;DHT22;6121;49.810;6.418;2023-05-07T06:34:10;13.30;99.90
12115;DHT22;6121;49.810;6.418;2023-05-07T06:36:40;13.40;99.90
12115;DHT22;6121;49.810;6.418;2023-05-07T06:39:15;13.50;99.90
12115;DHT22;6121;49.810;6.418;2023-05-07T06:41:42;13.60;99.90
12115;DHT22;6121;49.810;6.418;2023-05-07T06:44:17;13.60;99.90
12115;DHT22;6121;49.810;6.418;2023-05-07T06:46:47;13.60;99.90
12115;DHT22;6121;49.810;6.418;2023-05-07T06:49:14;13.80;99.90
12115;DHT22;6121;49.810;6.418;2023-05-07T06:51:40;14.00;99.90
12115;DHT22;6121;49.810;6.418;2023-05-07T06:54:06;14.10;99.90
12115;DHT22;6121;49.810;6.418;2023-05-07T06:56:34;14.10;99.90
12115;DHT22;6121;49.810;6.418;2023-05-07T06:59:02;13.90;99.90
12115;DHT22;6121;49.810;6.418;2023-05-07T07:01:33;14.00;99.90
12115;DHT22;6121;49.810;6.418;2023-05-07T07:04:01;14.20;99.90
12115;DHT22;6121;49.810;6.418;2023-05-07T07:06:30;14.30;99.90
12115;DHT22;6121;49.810;6.418;2023-05-07T07:08:58;14.60;99.90
12115;DHT22;6121;49.810;6.418;2023-05-07T07:11:24;14.70;99.90
12115;DHT22;6121;49.810;6.418;2023-05-07T07:13:50;14.80;99.90
12115;DHT22;6121;49.810;6.418;2023-05-07T07:16:16;14.90;99.90
12115;DHT22;6121;49.810;6.418;2023-05-07T07:18:43;14.90;99.90
12115;DHT22;6121;49.810;6.418;2023-05-07T07:21:09;15.10;99.90
12115;DHT22;6121;49.810;6.418;2023-05-07T07:23:35;15.20;99.90
12115;DHT22;6121;49.810;6.418;2023-05-07T07:26:02;15.30;99.90
12115;DHT22;6121;49.810;6.418;2023-05-07T07:28:28;15.20;99.90
12115;DHT22;6121;49.810;6.418;2023-05-07T07:30:55;15.20;99.90
12115;DHT22;6121;49.810;6.418;2023-05-07T07:33:21;15.30;99.90
12115;DHT22;6121;49.810;6.418;2023-05-07T07:35:47;15.50;99.90
12115;DHT22;6121;49.810;6.418;2023-05-07T07:38:12;15.70;99.90
12115;DHT22;6121;49.810;6.418;2023-05-07T07:40:38;15.90;99.90
12115;DHT22;6121;49.810;6.418;2023-05-07T07:43:07;15.80;99.90
12115;DHT22;6121;49.810;6.418;2023-05-07T07:45:34;15.90;99.90
12115;DHT22;6121;49.810;6.418;2023-05-07T07:48:00;15.90;99.90
12115;DHT22;6121;49.810;6.418;2023-05-07T07:50:27;16.20;99.90
12115;DHT22;6121;49.810;6.418;2023-05-07T07:52:54;16.20;99.90
12115;DHT22;6121;49.810;6.418;2023-05-07T07:55:20;16.30;99.90
12115;DHT22;6121;49.810;6.418;2023-05-07T07:57:49;16.50;99.90
12115;DHT22;6121;49.810;6.418;2023-05-07T08:00:16;16.50;99.90
12115;DHT22;6121;49.810;6.418;2023-05-07T08:02:49;16.70;99.90
12115;DHT22;6121;49.810;6.418;2023-05-07T08:05:22;16.90;99.90
12115;DHT22;6121;49.810;6.418;2023-05-07T08:07:49;16.90;99.90
12115;DHT22;6121;49.810;6.418;2023-05-07T08:10:19;17.00;99.90
12115;DHT22;6121;49.810;6.418;2023-05-07T08:12:53;17.20;99.90
12115;DHT22;6121;49.810;6.418;2023-05-07T08:15:19;17.30;99.90
12115;DHT22;6121;49.810;6.418;2023-05-07T08:17:45;17.40;99.90
12115;DHT22;6121;49.810;6.418;2023-05-07T08:20:12;17.40;99.90
12115;DHT22;6121;49.810;6.418;2023-05-07T08:22:38;17.50;99.90
12115;DHT22;6121;49.810;6.418;2023-05-07T08:25:05;17.50;99.90
12115;DHT22;6121;49.810;6.418;2023-05-07T08:27:31;17.80;99.90
12115;DHT22;6121;49.810;6.418;2023-05-07T08:29:57;17.90;99.90
12115;DHT22;6121;49.810;6.418;2023-05-07T08:32:24;18.10;99.90
12115;DHT22;6121;49.810;6.418;2023-05-07T08:34:50;18.20;99.90
12115;DHT22;6121;49.810;6.418;2023-05-07T08:37:17;18.30;99.90
12115;DHT22;6121;49.810;6.418;2023-05-07T08:39:44;18.50;99.90
12115;DHT22;6121;49.810;6.418;2023-05-07T08:42:17;18.60;99.90
12115;DHT22;6121;49.810;6.418;2023-05-07T08:44:45;18.80;99.90
12115;DHT22;6121;49.810;6.418;2023-05-07T08:47:17;19.10;99.90
12115;DHT22;6121;49.810;6.418;2023-05-07T08:49:44;19.20;99.90
12115;DHT22;6121;49.810;6.418;2023-05-07T08:52:12;19.30;99.90
12115;DHT22;6121;49.810;6.418;2023-05-07T08:54:39;19.30;99.90
12115;DHT22;6121;49.810;6.418;2023-05-07T08:57:07;19.40;99.90
12115;DHT22;6121;49.810;6.418;2023-05-07T08:59:34;19.50;99.90
12115;DHT22;6121;49.810;6.418;2023-05-07T09:02:03;19.60;99.90
12115;DHT22;6121;49.810;6.418;2023-05-07T09:04:30;20.00;99.90
12115;DHT22;6121;49.810;6.418;2023-05-07T09:06:57;20.20;99.90
12115;DHT22;6121;49.810;6.418;2023-05-07T09:09:32;20.30;99.90
12115;DHT22;6121;49.810;6.418;2023-05-07T09:11:58;20.80;99.90
12115;DHT22;6121;49.810;6.418;2023-05-07T09:14:30;21.00;99.90
12115;DHT22;6121;49.810;6.418;2023-05-07T09:16:56;21.50;99.90
12115;DHT22;6121;49.810;6.418;2023-05-07T09:19:23;21.90;99.90
12115;DHT22;6121;49.810;6.418;2023-05-07T09:21:57;22.00;99.90
12115;DHT22;6121;49.810;6.418;2023-05-07T09:24:23;22.30;99.90
12115;DHT22;6121;49.810;6.418;2023-05-07T09:26:49;22.70;99.90
12115;DHT22;6121;49.810;6.418;2023-05-07T09:29:15;22.70;99.90
12115;DHT22;6121;49.810;6.418;2023-05-07T09:31:42;22.40;99.90
12115;DHT22;6121;49.810;6.418;2023-05-07T09:34:16;22.60;99.90
12115;DHT22;6121;49.810;6.418;2023-05-07T09:36:44;22.80;99.90
12115;DHT22;6121;49.810;6.418;2023-05-07T09:39:11;23.10;99.90
12115;DHT22;6121;49.810;6.418;2023-05-07T09:41:48;23.20;99.90
12115;DHT22;6121;49.810;6.418;2023-05-07T09:44:25;23.50;99.90
12115;DHT22;6121;49.810;6.418;2023-05-07T09:46:54;23.60;99.90
12115;DHT22;6121;49.810;6.418;2023-05-07T09:49:29;23.60;99.90
12115;DHT22;6121;49.810;6.418;2023-05-07T09:52:05;23.60;99.90
12115;DHT22;6121;49.810;6.418;2023-05-07T09:54:36;23.90;99.90
12115;DHT22;6121;49.810;6.418;2023-05-07T09:57:07;24.00;99.90
12115;DHT22;6121;49.810;6.418;2023-05-07T09:59:34;24.10;99.90
12115;DHT22;6121;49.810;6.418;2023-05-07T10:02:05;24.30;99.90
12115;DHT22;6121;49.810;6.418;2023-05-07T10:04:37;24.60;99.90
12115;DHT22;6121;49.810;6.418;2023-05-07T10:07:04;24.80;99.70
12115;DHT22;6121;49.810;6.418;2023-05-07T10:09:32;24.90;98.90
12115;DHT22;6121;49.810;6.418;2023-05-07T10:11:58;24.80;97.80
12115;DHT22;6121;49.810;6.418;2023-05-07T10:14:25;25.20;98.00
12115;DHT22;6121;49.810;6.418;2023-05-07T10:16:54;25.50;97.50
12115;DHT22;6121;49.810;6.418;2023-05-07T10:19:22;25.30;97.80
12115;DHT22;6121;49.810;6.418;2023-05-07T10:21:55;25.80;97.80
12115;DHT22;6121;49.810;6.418;2023-05-07T10:24:26;26.40;97.00
12115;DHT22;6121;49.810;6.418;2023-05-07T10:26:55;26.80;96.70
12115;DHT22;6121;49.810;6.418;2023-05-07T10:32:37;27.00;95.80
12115;DHT22;6121;49.810;6.418;2023-05-07T10:35:10;27.10;95.80
12115;DHT22;6121;49.810;6.418;2023-05-07T10:37:38;27.30;95.00
12115;DHT22;6121;49.810;6.418;2023-05-07T10:40:05;27.20;94.80
12115;DHT22;6121;49.810;6.418;2023-05-07T10:42:33;27.00;94.70
12115;DHT22;6121;49.810;6.418;2023-05-07T10:45:11;27.00;94.10
12115;DHT22;6121;49.810;6.418;2023-05-07T10:48:08;26.70;94.10
12115;DHT22;6121;49.810;6.418;2023-05-07T10:50:36;26.40;94.30
12115;DHT22;6121;49.810;6.418;2023-05-07T10:58:51;26.20;93.40
12115;DHT22;6121;49.810;6.418;2023-05-07T11:01:54;26.40;93.20
12115;DHT22;6121;49.810;6.418;2023-05-07T11:04:36;26.00;93.70
12115;DHT22;6121;49.810;6.418;2023-05-07T11:07:19;26.40;93.50
12115;DHT22;6121;49.810;6.418;2023-05-07T11:15:33;27.00;92.00
12115;DHT22;6121;49.810;6.418;2023-05-07T11:17:59;27.20;91.60
12115;DHT22;6121;49.810;6.418;2023-05-07T11:20:57;27.10;92.50
12115;DHT22;6121;49.810;6.418;2023-05-07T11:26:17;26.60;91.90
12115;DHT22;6121;49.810;6.418;2023-05-07T11:28:44;26.40;92.10
12115;DHT22;6121;49.810;6.418;2023-05-07T11:31:11;26.20;91.90
12115;DHT22;6121;49.810;6.418;2023-05-07T11:33:38;26.10;92.20
12115;DHT22;6121;49.810;6.418;2023-05-07T11:36:08;26.20;92.10
12115;DHT22;6121;49.810;6.418;2023-05-07T11:38:39;26.20;92.00
12115;DHT22;6121;49.810;6.418;2023-05-07T11:41:05;25.90;92.10
12115;DHT22;6121;49.810;6.418;2023-05-07T11:43:32;25.50;92.30
12115;DHT22;6121;49.810;6.418;2023-05-07T11:46:06;25.30;92.70
12115;DHT22;6121;49.810;6.418;2023-05-07T11:48:34;25.50;92.40
12115;DHT22;6121;49.810;6.418;2023-05-07T11:51:03;26.00;92.20
12115;DHT22;6121;49.810;6.418;2023-05-07T11:53:40;26.40;92.00
12115;DHT22;6121;49.810;6.418;2023-05-07T11:56:16;26.50;92.10
12115;DHT22;6121;49.810;6.418;2023-05-07T11:58:44;26.40;92.30
12115;DHT22;6121;49.810;6.418;2023-05-07T12:01:11;26.50;92.00
12115;DHT22;6121;49.810;6.418;2023-05-07T12:03:40;26.10;92.00
12115;DHT22;6121;49.810;6.418;2023-05-07T12:06:11;26.70;92.40
12115;DHT22;6121;49.810;6.418;2023-05-07T12:08:38;27.00;92.00
12115;DHT22;6121;49.810;6.418;2023-05-07T12:11:07;26.90;91.40
12115;DHT22;6121;49.810;6.418;2023-05-07T12:13:34;26.50;91.70
12115;DHT22;6121;49.810;6.418;2023-05-07T12:16:01;26.60;92.30
12115;DHT22;6121;49.810;6.418;2023-05-07T12:18:29;26.30;92.30
12115;DHT22;6121;49.810;6.418;2023-05-07T12:20:57;26.30;92.10
12115;DHT22;6121;49.810;6.418;2023-05-07T12:23:23;26.50;92.30
12115;DHT22;6121;49.810;6.418;2023-05-07T12:25:49;26.40;92.50
12115;DHT22;6121;49.810;6.418;2023-05-07T12:28:16;26.10;92.40
12115;DHT22;6121;49.810;6.418;2023-05-07T12:30:44;26.30;92.80
12115;DHT22;6121;49.810;6.418;2023-05-07T12:33:10;26.50;92.80
12115;DHT22;6121;49.810;6.418;2023-05-07T12:35:38;26.80;92.70
12115;DHT22;6121;49.810;6.418;2023-05-07T12:38:08;26.70;92.30
12115;DHT22;6121;49.810;6.418;2023-05-07T12:43:19;26.40;91.60
12115;DHT22;6121;49.810;6.418;2023-05-07T12:45:50;26.10;92.10
12115;DHT22;6121;49.810;6.418;2023-05-07T12:48:17;26.00;92.30
12115;DHT22;6121;49.810;6.418;2023-05-07T12:50:44;26.30;92.30
12115;DHT22;6121;49.810;6.418;2023-05-07T12:53:13;26.30;92.20
12115;DHT22;6121;49.810;6.418;2023-05-07T12:55:45;26.20;92.20
12115;DHT22;6121;49.810;6.418;2023-05-07T12:58:19;26.10;92.20
12115;DHT22;6121;49.810;6.418;2023-05-07T13:00:47;26.20;92.60
12115;DHT22;6121;49.810;6.418;2023-05-07T13:03:21;26.10;92.10
12115;DHT22;6121;49.810;6.418;2023-05-07T13:05:48;25.70;92.80
12115;DHT22;6121;49.810;6.418;2023-05-07T13:08:24;25.40;92.80
12115;DHT22;6121;49.810;6.418;2023-05-07T13:10:50;25.30;92.70
12115;DHT22;6121;49.810;6.418;2023-05-07T13:13:15;25.20;93.00
12115;DHT22;6121;49.810;6.418;2023-05-07T13:15:41;25.20;92.20
12115;DHT22;6121;49.810;6.418;2023-05-07T13:18:08;25.20;92.60
12115;DHT22;6121;49.810;6.418;2023-05-07T13:20:36;25.30;92.70
12115;DHT22;6121;49.810;6.418;2023-05-07T13:23:02;25.30;93.00
12115;DHT22;6121;49.810;6.418;2023-05-07T13:25:30;25.20;92.90
12115;DHT22;6121;49.810;6.418;2023-05-07T13:27:59;25.10;93.10
12115;DHT22;6121;49.810;6.418;2023-05-07T13:30:25;24.90;93.20
12115;DHT22;6121;49.810;6.418;2023-05-07T13:32:54;24.60;93.50
12115;DHT22;6121;49.810;6.418;2023-05-07T13:35:21;24.40;94.10
12115;DHT22;6121;49.810;6.418;2023-05-07T13:37:47;24.40;94.20
12115;DHT22;6121;49.810;6.418;2023-05-07T13:40:15;24.40;94.10
12115;DHT22;6121;49.810;6.418;2023-05-07T13:42:41;24.00;94.50
12115;DHT22;6121;49.810;6.418;2023-05-07T13:45:08;24.10;94.60
12115;DHT22;6121;49.810;6.418;2023-05-07T13:47:34;24.10;94.50
12115;DHT22;6121;49.810;6.418;2023-05-07T13:50:00;24.20;94.80
12115;DHT22;6121;49.810;6.418;2023-05-07T13:52:26;24.30;94.40
12115;DHT22;6121;49.810;6.418;2023-05-07T13:54:52;24.40;94.20
12115;DHT22;6121;49.810;6.418;2023-05-07T13:57:18;24.50;93.80
12115;DHT22;6121;49.810;6.418;2023-05-07T13:59:44;24.50;93.70
12115;DHT22;6121;49.810;6.418;2023-05-07T14:02:11;24.60;93.70
12115;DHT22;6121;49.810;6.418;2023-05-07T14:04:37;24.50;94.00
12115;DHT22;6121;49.810;6.418;2023-05-07T14:07:05;24.60;93.80
12115;DHT22;6121;49.810;6.418;2023-05-07T14:09:31;24.70;93.90
12115;DHT22;6121;49.810;6.418;2023-05-07T14:11:58;24.60;93.40
12115;DHT22;6121;49.810;6.418;2023-05-07T14:14:24;24.70;93.60
12115;DHT22;6121;49.810;6.418;2023-05-07T14:16:50;24.80;93.30
12115;DHT22;6121;49.810;6.418;2023-05-07T14:19:16;24.70;92.70
12115;DHT22;6121;49.810;6.418;2023-05-07T14:21:42;24.40;93.10
12115;DHT22;6121;49.810;6.418;2023-05-07T14:24:08;24.50;93.20
12115;DHT22;6121;49.810;6.418;2023-05-07T14:26:35;24.60;93.30
12115;DHT22;6121;49.810;6.418;2023-05-07T14:29:03;24.70;93.30
12115;DHT22;6121;49.810;6.418;2023-05-07T14:31:29;24.70;93.40
12115;DHT22;6121;49.810;6.418;2023-05-07T14:33:54;24.70;93.20
12115;DHT22;6121;49.810;6.418;2023-05-07T14:36:20;24.50;93.20
12115;DHT22;6121;49.810;6.418;2023-05-07T14:38:48;24.50;92.80
12115;DHT22;6121;49.810;6.418;2023-05-07T14:41:14;24.40;92.70
12115;DHT22;6121;49.810;6.418;2023-05-07T14:43:41;24.40;92.70
12115;DHT22;6121;49.810;6.418;2023-05-07T14:46:06;24.30;93.20
12115;DHT22;6121;49.810;6.418;2023-05-07T14:48:32;24.30;93.30
12115;DHT22;6121;49.810;6.418;2023-05-07T14:50:58;24.30;93.40
12115;DHT22;6121;49.810;6.418;2023-05-07T14:53:24;24.10;93.50
12115;DHT22;6121;49.810;6.418;2023-05-07T14:55:51;24.10;93.80
12115;DHT22;6121;49.810;6.418;2023-05-07T14:58:17;24.10;93.90
12115;DHT22;6121;49.810;6.418;2023-05-07T15:00:43;24.20;94.20
12115;DHT22;6121;49.810;6.418;2023-05-07T15:03:10;24.20;94.30
12115;DHT22;6121;49.810;6.418;2023-05-07T15:05:37;24.30;94.30
12115;DHT22;6121;49.810;6.418;2023-05-07T15:08:03;23.90;94.10
12115;DHT22;6121;49.810;6.418;2023-05-07T15:10:28;24.00;93.70
12115;DHT22;6121;49.810;6.418;2023-05-07T15:12:54;24.10;93.60
12115;DHT22;6121;49.810;6.418;2023-05-07T15:15:20;24.00;93.60
12115;DHT22;6121;49.810;6.418;2023-05-07T15:17:46;24.00;93.90
12115;DHT22;6121;49.810;6.418;2023-05-07T15:20:12;23.80;93.80
12115;DHT22;6121;49.810;6.418;2023-05-07T15:22:38;23.70;93.70
12115;DHT22;6121;49.810;6.418;2023-05-07T15:25:04;23.80;93.60
12115;DHT22;6121;49.810;6.418;2023-05-07T15:27:30;23.70;93.70
12115;DHT22;6121;49.810;6.418;2023-05-07T15:29:57;23.70;93.60
12115;DHT22;6121;49.810;6.418;2023-05-07T15:32:23;23.70;93.80
12115;DHT22;6121;49.810;6.418;2023-05-07T15:34:49;23.70;93.20
12115;DHT22;6121;49.810;6.418;2023-05-07T15:37:15;23.50;93.10
12115;DHT22;6121;49.810;6.418;2023-05-07T15:39:41;23.60;93.50
12115;DHT22;6121;49.810;6.418;2023-05-07T15:42:06;23.60;93.50
12115;DHT22;6121;49.810;6.418;2023-05-07T15:44:32;23.70;93.40
12115;DHT22;6121;49.810;6.418;2023-05-07T15:46:59;23.50;94.90
12115;DHT22;6121;49.810;6.418;2023-05-07T15:49:25;23.50;95.10
12115;DHT22;6121;49.810;6.418;2023-05-07T15:51:51;23.60;95.50
12115;DHT22;6121;49.810;6.418;2023-05-07T15:54:20;23.60;95.70
12115;DHT22;6121;49.810;6.418;2023-05-07T15:56:47;23.60;95.70
12115;DHT22;6121;49.810;6.418;2023-05-07T15:59:12;23.40;95.50
12115;DHT22;6121;49.810;6.418;2023-05-07T16:01:40;23.50;94.90
12115;DHT22;6121;49.810;6.418;2023-05-07T16:04:07;23.40;95.00
12115;DHT22;6121;49.810;6.418;2023-05-07T16:06:33;23.30;95.40
12115;DHT22;6121;49.810;6.418;2023-05-07T16:08:59;23.40;95.90